createdAt,value
2022-11-09T00:00:41.263Z,16.90
2022-11-09T00:03:08.141Z,16.90
2022-11-09T00:05:35.143Z,16.90
2022-11-09T00:08:04.811Z,16.90
2022-11-09T00:10:32.984Z,16.80
2022-11-09T00:13:00.542Z,16.80
2022-11-09T00:15:28.046Z,16.80
2022-11-09T00:17:55.148Z,16.80
2022-11-09T00:20:22.103Z,16.80
2022-11-09T00:22:50.167Z,16.80
2022-11-09T00:25:17.065Z,16.80
2022-11-09T00:27:43.927Z,16.70
2022-11-09T00:30:11.724Z,16.70
2022-11-09T00:32:39.059Z,16.70
2022-11-09T00:35:07.177Z,16.70
2022-11-09T00:37:35.296Z,16.70
2022-11-09T00:40:02.578Z,16.60
2022-11-09T00:42:29.421Z,16.60
2022-11-09T00:44:56.315Z,16.60
2022-11-09T00:47:23.280Z,16.60
2022-11-09T00:49:50.108Z,16.60
2022-11-09T00:52:16.987Z,16.60
2022-11-09T00:54:43.849Z,16.60
2022-11-09T00:57:13.267Z,16.50
2022-11-09T00:59:43.823Z,16.50
2022-11-09T01:02:10.644Z,16.60
2022-11-09T01:04:37.522Z,16.50
2022-11-09T01:07:04.486Z,16.50
2022-11-09T01:09:31.520Z,16.50
2022-11-09T01:11:58.442Z,16.50
2022-11-09T01:14:25.665Z,16.50
2022-11-09T01:16:52.770Z,16.50
2022-11-09T01:19:19.656Z,16.50
2022-11-09T01:21:46.574Z,16.50
2022-11-09T01:24:13.798Z,16.50
2022-11-09T01:26:40.714Z,16.50
2022-11-09T01:29:07.545Z,16.40
2022-11-09T01:31:34.393Z,16.40
2022-11-09T01:34:02.310Z,16.30
2022-11-09T01:36:29.993Z,16.30
2022-11-09T01:39:00.159Z,16.30
2022-11-09T01:41:28.481Z,16.30
2022-11-09T01:44:19.211Z,16.30
2022-11-09T01:46:55.599Z,16.30
2022-11-09T01:49:43.368Z,16.30
2022-11-09T01:52:22.098Z,16.30
2022-11-09T01:54:53.505Z,16.30
2022-11-09T01:57:25.513Z,16.20
2022-11-09T01:59:57.058Z,16.20
2022-11-09T02:02:24.719Z,16.20
2022-11-09T02:05:15.030Z,16.20
2022-11-09T02:07:43.969Z,16.20
2022-11-09T02:10:34.630Z,16.30
2022-11-09T02:13:02.702Z,16.20
2022-11-09T02:15:39.150Z,16.20
2022-11-09T02:18:10.846Z,16.10
2022-11-09T02:20:47.170Z,16.10
2022-11-09T02:23:14.112Z,16.10
2022-11-09T02:25:42.273Z,16.10
2022-11-09T02:28:10.016Z,16.10
2022-11-09T02:30:37.226Z,16.10
2022-11-09T02:33:04.993Z,16.10
2022-11-09T02:35:32.002Z,16.10
2022-11-09T02:37:58.879Z,16.00
2022-11-09T02:40:38.387Z,16.10
2022-11-09T02:43:08.135Z,16.00
2022-11-09T02:45:35.020Z,16.00
2022-11-09T02:48:01.892Z,16.00
2022-11-09T02:50:28.878Z,16.00
2022-11-09T02:52:56.122Z,16.00
2022-11-09T02:55:23.817Z,16.10
2022-11-09T02:57:50.705Z,16.10
2022-11-09T03:00:18.669Z,16.20
2022-11-09T03:02:45.568Z,16.20
2022-11-09T03:05:12.719Z,16.20
2022-11-09T03:07:42.579Z,16.20
2022-11-09T03:10:09.728Z,16.30
2022-11-09T03:12:37.387Z,16.30
2022-11-09T03:15:08.904Z,16.30
2022-11-09T03:17:39.026Z,16.30
2022-11-09T03:20:06.720Z,16.30
2022-11-09T03:22:34.118Z,16.30
2022-11-09T03:25:01.614Z,16.20
2022-11-09T03:27:28.922Z,16.20
2022-11-09T03:29:58.523Z,16.20
2022-11-09T03:32:25.760Z,16.20
2022-11-09T03:34:52.697Z,16.20
2022-11-09T03:37:20.285Z,16.20
2022-11-09T03:39:47.201Z,16.10
2022-11-09T03:42:15.122Z,16.10
2022-11-09T03:44:41.946Z,16.10
2022-11-09T03:47:08.819Z,16.00
2022-11-09T03:49:35.633Z,16.00
2022-11-09T03:52:02.820Z,15.90
2022-11-09T03:54:29.734Z,15.90
2022-11-09T03:56:56.621Z,15.80
2022-11-09T03:59:23.462Z,15.80
2022-11-09T04:01:50.378Z,15.80
2022-11-09T04:04:17.385Z,15.70
2022-11-09T04:06:44.298Z,15.70
2022-11-09T04:09:11.338Z,15.60
2022-11-09T04:11:38.184Z,15.60
2022-11-09T04:14:05.037Z,15.60
2022-11-09T04:16:33.211Z,15.60
2022-11-09T04:19:00.101Z,15.60
2022-11-09T04:21:26.998Z,15.60
2022-11-09T04:23:53.862Z,15.60
2022-11-09T04:26:20.762Z,15.60
2022-11-09T04:28:47.658Z,15.60
2022-11-09T04:31:14.589Z,15.60
2022-11-09T04:33:41.479Z,15.60
2022-11-09T04:36:08.918Z,15.60
2022-11-09T04:38:36.595Z,15.60
2022-11-09T04:41:04.933Z,15.60
2022-11-09T04:43:32.122Z,15.60
2022-11-09T04:46:05.147Z,15.70
2022-11-09T04:48:32.967Z,15.60
2022-11-09T04:51:04.528Z,15.70
2022-11-09T04:53:31.677Z,15.70
2022-11-09T04:55:58.742Z,15.70
2022-11-09T04:58:26.285Z,15.70
2022-11-09T05:00:54.122Z,15.70
2022-11-09T05:03:21.457Z,15.70
2022-11-09T05:05:48.842Z,15.70
2022-11-09T05:08:15.838Z,15.70
2022-11-09T05:10:42.640Z,15.60
2022-11-09T05:13:12.070Z,15.60
2022-11-09T05:15:39.304Z,15.60
2022-11-09T05:18:07.223Z,15.50
2022-11-09T05:20:35.348Z,15.50
2022-11-09T05:23:20.669Z,15.40
2022-11-09T05:25:47.852Z,15.30
2022-11-09T05:28:15.008Z,15.30
2022-11-09T05:30:41.897Z,15.20
2022-11-09T05:33:08.731Z,15.10
2022-11-09T05:35:35.633Z,15.10
2022-11-09T05:38:02.588Z,15.10
2022-11-09T05:40:29.508Z,15.10
2022-11-09T05:42:56.742Z,15.10
2022-11-09T05:45:42.122Z,15.10
2022-11-09T05:48:10.978Z,15.10
2022-11-09T05:50:38.732Z,15.10
2022-11-09T05:53:34.988Z,15.10
2022-11-09T05:56:10.754Z,15.10
2022-11-09T05:58:38.866Z,15.20
2022-11-09T06:01:07.319Z,15.20
2022-11-09T06:03:34.616Z,15.20
2022-11-09T06:06:08.549Z,15.20
2022-11-09T06:08:36.483Z,15.20
2022-11-09T06:11:05.786Z,15.20
2022-11-09T06:13:33.252Z,15.20
2022-11-09T06:16:01.710Z,15.20
2022-11-09T06:18:31.098Z,15.20
2022-11-09T06:21:00.736Z,15.20
2022-11-09T06:23:29.332Z,15.20
2022-11-09T06:26:09.148Z,15.10
2022-11-09T06:28:37.594Z,15.10
2022-11-09T06:31:06.736Z,15.10
2022-11-09T06:33:36.368Z,15.10
2022-11-09T06:36:04.418Z,15.10
2022-11-09T06:38:31.556Z,15.10
2022-11-09T06:40:59.728Z,15.10
2022-11-09T06:43:27.316Z,15.10
2022-11-09T06:45:54.188Z,15.10
2022-11-09T06:48:21.200Z,15.10
2022-11-09T06:50:48.242Z,15.00
2022-11-09T06:53:16.812Z,15.10
2022-11-09T06:55:49.878Z,15.00
2022-11-09T06:58:17.570Z,15.00
2022-11-09T07:00:45.231Z,15.10
2022-11-09T07:03:16.565Z,15.10
2022-11-09T07:05:44.280Z,15.10
2022-11-09T07:08:12.044Z,15.10
2022-11-09T07:10:39.340Z,15.10
2022-11-09T07:13:07.235Z,15.10
2022-11-09T07:15:35.356Z,15.10
2022-11-09T07:18:03.993Z,15.10
2022-11-09T07:20:31.575Z,15.10
2022-11-09T07:22:58.634Z,15.10
2022-11-09T07:25:27.382Z,15.10
2022-11-09T07:27:54.578Z,15.10
2022-11-09T07:30:21.862Z,15.10
2022-11-09T07:35:35.832Z,15.20
2022-11-09T07:38:02.730Z,15.20
2022-11-09T07:40:30.146Z,15.20
2022-11-09T07:43:05.170Z,15.30
2022-11-09T07:45:33.747Z,15.30
2022-11-09T07:48:06.595Z,15.30
2022-11-09T07:50:34.677Z,15.40
2022-11-09T07:53:02.193Z,15.30
2022-11-09T07:55:30.385Z,15.40
2022-11-09T07:58:03.460Z,15.40
2022-11-09T08:00:32.956Z,15.40
2022-11-09T08:03:00.090Z,15.40
2022-11-09T08:05:27.223Z,15.40
2022-11-09T08:08:06.916Z,15.40
2022-11-09T08:10:35.263Z,15.50
2022-11-09T08:13:08.480Z,15.50
2022-11-09T08:15:36.522Z,15.60
2022-11-09T08:18:06.463Z,15.60
2022-11-09T08:20:34.710Z,15.60
2022-11-09T08:23:04.866Z,15.70
2022-11-09T08:25:34.129Z,15.70
2022-11-09T08:28:01.280Z,15.80
2022-11-09T08:30:28.139Z,15.90
2022-11-09T08:32:55.356Z,16.00
2022-11-09T08:35:24.412Z,16.10
2022-11-09T08:37:52.913Z,16.30
2022-11-09T08:40:22.936Z,16.50
2022-11-09T08:42:50.663Z,16.70
2022-11-09T08:45:18.144Z,16.90
2022-11-09T08:47:45.589Z,17.00
2022-11-09T08:50:13.962Z,17.20
2022-11-09T08:52:41.242Z,17.30
2022-11-09T08:55:08.540Z,17.40
2022-11-09T08:57:35.535Z,17.60
2022-11-09T09:00:02.671Z,17.70
2022-11-09T09:02:30.317Z,17.80
2022-11-09T09:04:57.223Z,17.90
2022-11-09T09:07:24.128Z,17.90
2022-11-09T09:09:51.020Z,17.90
2022-11-09T09:12:18.153Z,17.90
2022-11-09T09:14:45.001Z,17.90
2022-11-09T09:17:11.889Z,17.80
2022-11-09T09:19:38.791Z,17.80
2022-11-09T09:22:05.926Z,17.90
2022-11-09T09:24:32.812Z,17.90
2022-11-09T09:26:59.779Z,18.00
2022-11-09T09:29:26.656Z,18.10
2022-11-09T09:31:53.497Z,18.10
2022-11-09T09:34:20.419Z,18.10
2022-11-09T09:36:48.448Z,18.00
2022-11-09T09:39:15.884Z,17.90
2022-11-09T09:41:56.552Z,17.80
2022-11-09T09:44:34.398Z,17.70
2022-11-09T09:47:23.477Z,17.70
2022-11-09T09:50:13.397Z,17.70
2022-11-09T09:53:22.042Z,17.80
2022-11-09T09:55:47.783Z,17.90
2022-11-09T09:58:23.336Z,18.00
2022-11-09T10:00:55.057Z,18.00
2022-11-09T10:03:22.072Z,18.00
2022-11-09T10:05:54.736Z,18.00
2022-11-09T10:08:33.117Z,18.00
2022-11-09T10:11:06.089Z,18.00
2022-11-09T10:13:49.942Z,18.00
2022-11-09T10:16:39.281Z,18.00
2022-11-09T10:19:28.710Z,17.90
2022-11-09T10:22:19.961Z,17.80
2022-11-09T10:25:37.566Z,17.70
2022-11-09T10:27:56.572Z,17.70
2022-11-09T10:30:25.955Z,17.70
2022-11-09T10:33:21.434Z,17.80
2022-11-09T10:35:56.409Z,17.90
2022-11-09T10:38:33.453Z,17.80
2022-11-09T10:41:33.296Z,17.90
2022-11-09T10:44:20.124Z,17.90
2022-11-09T10:47:11.220Z,17.80
2022-11-09T10:50:15.584Z,17.80
2022-11-09T10:53:13.071Z,17.90
2022-11-09T10:56:04.258Z,17.80
2022-11-09T10:58:53.995Z,17.80
2022-11-09T11:01:39.097Z,17.70
2022-11-09T11:04:27.142Z,17.70
2022-11-09T11:07:21.373Z,17.70
2022-11-09T11:10:16.953Z,17.70
2022-11-09T11:13:05.268Z,17.70
2022-11-09T11:15:51.102Z,17.60
2022-11-09T11:18:36.913Z,17.60
2022-11-09T11:21:23.766Z,17.60
2022-11-09T11:24:19.722Z,17.60
2022-11-09T11:27:23.277Z,17.60
2022-11-09T11:30:18.743Z,17.60
2022-11-09T11:33:15.424Z,17.50
2022-11-09T11:36:19.378Z,17.60
2022-11-09T11:39:33.079Z,17.60
2022-11-09T11:42:24.281Z,17.50
2022-11-09T11:45:41.433Z,17.50
2022-11-09T11:48:43.389Z,17.30
2022-11-09T11:51:37.922Z,17.00
2022-11-09T11:54:32.194Z,16.80
2022-11-09T11:57:23.559Z,16.60
2022-11-09T12:00:19.947Z,16.60
2022-11-09T12:03:17.487Z,16.60
2022-11-09T12:06:11.428Z,16.60
2022-11-09T12:09:27.613Z,16.70
2022-11-09T12:12:54.627Z,16.70
2022-11-09T12:16:00.152Z,16.80
2022-11-09T12:18:58.074Z,16.80
2022-11-09T12:22:01.073Z,16.90
2022-11-09T12:25:02.507Z,17.00
2022-11-09T12:28:14.890Z,17.00
2022-11-09T12:31:36.317Z,17.00
2022-11-09T12:34:31.466Z,17.00
2022-11-09T12:37:24.144Z,17.00
2022-11-09T12:40:12.645Z,17.10
2022-11-09T12:43:41.469Z,17.10
2022-11-09T12:46:36.770Z,17.10
2022-11-09T12:49:39.195Z,17.10
2022-11-09T12:52:28.995Z,17.00
2022-11-09T12:55:16.563Z,17.00
2022-11-09T12:58:01.692Z,17.00
2022-11-09T13:00:48.321Z,17.00
2022-11-09T13:03:37.739Z,17.00
2022-11-09T13:06:31.444Z,17.10
2022-11-09T13:09:16.924Z,17.10
2022-11-09T13:12:28.474Z,17.10
2022-11-09T13:15:27.963Z,17.20
2022-11-09T13:18:26.044Z,17.20
2022-11-09T13:21:23.721Z,17.20
2022-11-09T13:24:32.298Z,17.20
2022-11-09T13:27:33.028Z,17.10
2022-11-09T13:30:30.252Z,17.10
2022-11-09T13:33:15.390Z,17.10
2022-11-09T13:36:06.957Z,17.10
2022-11-09T13:39:30.974Z,17.10
2022-11-09T13:42:36.604Z,17.10
2022-11-09T13:45:30.048Z,17.10
2022-11-09T13:48:45.655Z,17.10
2022-11-09T13:51:41.126Z,17.20
2022-11-09T13:54:37.581Z,17.20
2022-11-09T13:57:24.742Z,17.10
2022-11-09T14:00:25.314Z,17.10
2022-11-09T14:03:30.085Z,17.10
2022-11-09T14:06:15.378Z,17.10
2022-11-09T14:09:02.050Z,17.10
2022-11-09T14:12:15.349Z,17.10
2022-11-09T14:15:09.636Z,17.10
2022-11-09T14:18:13.720Z,17.10
2022-11-09T14:21:04.963Z,17.00
2022-11-09T14:23:51.482Z,17.00
2022-11-09T14:26:36.653Z,17.00
2022-11-09T14:29:24.634Z,17.00
2022-11-09T14:32:37.289Z,17.00
2022-11-09T14:35:22.977Z,17.00
2022-11-09T14:38:24.342Z,17.00
2022-11-09T14:41:22.422Z,17.00
2022-11-09T14:44:16.838Z,17.00
2022-11-09T14:47:03.246Z,17.00
2022-11-09T14:49:49.571Z,17.00
2022-11-09T14:52:35.558Z,17.00
2022-11-09T14:55:22.709Z,17.00
2022-11-09T14:58:13.972Z,16.90
2022-11-09T15:01:09.659Z,16.90
2022-11-09T15:04:12.638Z,16.90
2022-11-09T15:07:04.453Z,16.90
2022-11-09T15:09:55.328Z,16.90
2022-11-09T15:12:48.851Z,16.90
2022-11-09T15:15:35.662Z,16.90
2022-11-09T15:18:29.017Z,16.80
2022-11-09T15:21:32.780Z,16.80
2022-11-09T15:24:20.980Z,16.80
2022-11-09T15:27:28.567Z,16.80
2022-11-09T15:30:32.502Z,16.80
2022-11-09T15:33:18.005Z,16.70
2022-11-09T15:36:19.423Z,16.70
2022-11-09T15:39:24.440Z,16.70
2022-11-09T15:42:13.563Z,16.60
2022-11-09T15:45:00.196Z,16.70
2022-11-09T15:47:55.087Z,16.70
2022-11-09T15:50:41.285Z,16.60
2022-11-09T15:53:27.677Z,16.60
2022-11-09T15:56:21.788Z,16.60
2022-11-09T15:59:08.339Z,16.60
2022-11-09T16:01:54.308Z,16.50
2022-11-09T16:04:40.146Z,16.50
2022-11-09T16:07:25.706Z,16.50
2022-11-09T16:10:30.768Z,16.40
2022-11-09T16:13:16.310Z,16.40
2022-11-09T16:16:04.077Z,16.40
2022-11-09T16:18:49.347Z,16.30
2022-11-09T16:21:34.966Z,16.30
2022-11-09T16:24:20.983Z,16.30
2022-11-09T16:27:16.913Z,16.30
2022-11-09T16:30:13.897Z,16.20
2022-11-09T16:32:59.122Z,16.20
2022-11-09T16:35:44.600Z,16.20
2022-11-09T16:38:32.160Z,16.20
2022-11-09T16:41:18.367Z,16.20
2022-11-09T16:44:04.047Z,16.20
2022-11-09T16:46:49.503Z,16.20
2022-11-09T16:49:34.670Z,16.20
2022-11-09T16:52:20.294Z,16.20
2022-11-09T16:55:07.769Z,16.20
2022-11-09T16:57:52.900Z,16.20
2022-11-09T17:01:04.336Z,16.20
2022-11-09T17:03:49.577Z,16.20
2022-11-09T17:06:35.844Z,16.20
2022-11-09T17:09:21.102Z,16.20
2022-11-09T17:12:06.287Z,16.20
2022-11-09T17:14:51.696Z,16.20
2022-11-09T17:17:37.299Z,16.20
2022-11-09T17:20:22.921Z,16.20
2022-11-09T17:23:08.814Z,16.20
2022-11-09T17:25:59.371Z,16.20
2022-11-09T17:28:45.151Z,16.20
2022-11-09T17:31:30.624Z,16.10
2022-11-09T17:34:16.353Z,16.10
2022-11-09T17:37:05.153Z,16.10
2022-11-09T17:39:51.044Z,16.10
2022-11-09T17:42:36.829Z,16.10
2022-11-09T17:45:22.609Z,16.00
2022-11-09T17:48:08.193Z,16.00
2022-11-09T17:50:53.399Z,16.00
2022-11-09T17:53:39.750Z,16.00
2022-11-09T17:56:25.538Z,16.00
2022-11-09T17:59:11.433Z,15.90
2022-11-09T18:01:56.687Z,15.90
2022-11-09T18:04:42.256Z,15.90
2022-11-09T18:07:29.759Z,15.90
2022-11-09T18:10:15.124Z,15.90
2022-11-09T18:13:00.886Z,15.90
2022-11-09T18:15:46.494Z,15.90
2022-11-09T18:18:32.369Z,15.80
2022-11-09T18:21:19.579Z,15.80
2022-11-09T18:24:05.264Z,15.80
2022-11-09T18:26:50.802Z,15.70
2022-11-09T18:29:36.323Z,15.60
2022-11-09T18:32:21.943Z,15.60
2022-11-09T18:35:07.481Z,15.50
2022-11-09T18:37:52.757Z,15.50
2022-11-09T18:40:38.344Z,15.50
2022-11-09T18:43:23.688Z,15.40
2022-11-09T18:46:11.810Z,15.40
2022-11-09T18:48:57.191Z,15.40
2022-11-09T18:51:43.839Z,15.40
2022-11-09T18:54:29.314Z,15.30
2022-11-09T18:57:19.652Z,15.30
2022-11-09T19:00:06.445Z,15.30
2022-11-09T19:02:51.746Z,15.30
2022-11-09T19:05:40.130Z,15.30
2022-11-09T19:08:44.269Z,15.40
2022-11-09T19:11:30.161Z,15.30
2022-11-09T19:14:15.486Z,15.30
2022-11-09T19:17:01.000Z,15.30
2022-11-09T19:19:46.441Z,15.30
2022-11-09T19:22:36.723Z,15.30
2022-11-09T19:25:22.678Z,15.30
2022-11-09T19:28:07.798Z,15.30
2022-11-09T19:30:53.667Z,15.30
2022-11-09T19:33:39.056Z,15.30
2022-11-09T19:36:31.299Z,15.30
2022-11-09T19:39:17.824Z,15.30
2022-11-09T19:42:03.152Z,15.40
2022-11-09T19:44:55.046Z,15.40
2022-11-09T19:47:41.893Z,15.40
2022-11-09T19:50:27.496Z,15.40
2022-11-09T19:53:13.023Z,15.30
2022-11-09T19:55:59.800Z,15.30
2022-11-09T19:59:04.719Z,15.20
2022-11-09T20:01:50.291Z,15.20
2022-11-09T20:04:35.879Z,15.20
2022-11-09T20:07:21.893Z,15.10
2022-11-09T20:10:09.065Z,15.10
2022-11-09T20:12:55.508Z,15.10
2022-11-09T20:15:40.850Z,15.00
2022-11-09T20:18:26.103Z,15.00
2022-11-09T20:21:11.331Z,14.90
2022-11-09T20:23:57.097Z,14.90
2022-11-09T20:26:43.894Z,14.90
2022-11-09T20:29:29.320Z,14.80
2022-11-09T20:32:17.799Z,14.80
2022-11-09T20:35:06.474Z,14.80
2022-11-09T20:37:51.773Z,14.80
2022-11-09T20:40:37.535Z,14.80
2022-11-09T20:43:23.536Z,14.70
2022-11-09T20:46:15.932Z,14.70
2022-11-09T20:49:02.328Z,14.70
2022-11-09T20:51:48.481Z,14.70
2022-11-09T20:54:34.105Z,14.70
2022-11-09T20:57:19.562Z,14.70
2022-11-09T21:00:05.301Z,14.70
2022-11-09T21:02:50.889Z,14.70
2022-11-09T21:05:36.044Z,14.70
2022-11-09T21:08:21.867Z,14.60
2022-11-09T21:11:09.630Z,14.60
2022-11-09T21:13:56.043Z,14.60
2022-11-09T21:16:41.203Z,14.60
2022-11-09T21:19:26.759Z,14.60
2022-11-09T21:22:12.182Z,14.70
2022-11-09T21:25:16.469Z,14.60
2022-11-09T21:28:20.708Z,14.70
2022-11-09T21:31:06.346Z,14.70
2022-11-09T21:33:53.450Z,14.70
2022-11-09T21:36:38.720Z,14.80
2022-11-09T21:39:24.264Z,14.80
2022-11-09T21:42:12.016Z,14.90
2022-11-09T21:44:57.489Z,14.90
2022-11-09T21:47:42.929Z,15.00
2022-11-09T21:50:28.459Z,14.90
2022-11-09T21:53:13.970Z,15.00
2022-11-09T21:56:00.063Z,14.90
2022-11-09T21:58:49.046Z,14.90
2022-11-09T22:01:34.922Z,14.80
2022-11-09T22:04:20.475Z,14.80
2022-11-09T22:07:06.176Z,14.70
2022-11-09T22:10:11.786Z,14.70
2022-11-09T22:13:15.981Z,14.60
2022-11-09T22:16:09.660Z,14.50
2022-11-09T22:19:13.381Z,14.50
2022-11-09T22:21:58.892Z,14.40
2022-11-09T22:24:44.189Z,14.40
2022-11-09T22:27:31.400Z,14.40
2022-11-09T22:30:17.160Z,14.40
2022-11-09T22:33:02.635Z,14.40
2022-11-09T22:36:05.256Z,14.30
2022-11-09T22:38:51.156Z,14.30
2022-11-09T22:41:36.780Z,14.30
2022-11-09T22:44:22.241Z,14.30
2022-11-09T22:47:07.579Z,14.30
2022-11-09T22:49:52.889Z,14.30
2022-11-09T22:52:38.283Z,14.30
2022-11-09T22:55:24.767Z,14.30
2022-11-09T22:58:10.932Z,14.30
2022-11-09T23:01:07.884Z,14.20
2022-11-09T23:03:53.294Z,14.30
2022-11-09T23:06:38.871Z,14.30
2022-11-09T23:09:24.290Z,14.30
2022-11-09T23:12:09.801Z,14.20
2022-11-09T23:15:04.177Z,14.20
2022-11-09T23:18:08.045Z,14.20
2022-11-09T23:20:53.201Z,14.20
2022-11-09T23:23:38.828Z,14.20
2022-11-09T23:26:25.183Z,14.10
2022-11-09T23:29:10.733Z,14.10
2022-11-09T23:31:57.241Z,14.10
2022-11-09T23:34:42.314Z,14.10
2022-11-09T23:37:27.834Z,14.10
2022-11-09T23:40:13.743Z,14.10
2022-11-09T23:43:10.328Z,14.10
2022-11-09T23:45:57.088Z,14.00
2022-11-09T23:48:42.530Z,14.00
2022-11-09T23:51:27.745Z,14.00
2022-11-09T23:54:13.010Z,14.00
2022-11-09T23:56:58.485Z,13.90
2022-11-09T23:59:44.004Z,13.90
